NCAR-RAP Real-Time Weather Data

Output produced by METARs form (26 May 2022  07:57 UTC)
found at http://weather.rap.ucar.edu/surface/
 
KBOI 260753Z 13005KT 10SM CLR 15/06 A2991 RMK AO2 SLP107 T01500056
KBOI 260653Z 12003KT 10SM CLR 16/05 A2992 RMK AO2 SLP107 T01610050 402780106
KBOI 260553Z 17004KT 10SM CLR 18/04 A2991 RMK AO2 SLP104 T01780039 10267 20172 53006
KBOI 260453Z 18007KT 10SM CLR 18/04 A2991 RMK AO2 SLP105 T01830039
KBOI 260353Z 06006KT 10SM CLR 23/03 A2989 RMK AO2 SLP096 T02280028
KBOI 260253Z 05003KT 10SM CLR 24/04 A2989 RMK AO2 SLP098 T02390044 56010
KBOI 260153Z 02004KT 10SM CLR 26/03 A2989 RMK AO2 SLP100 T02560028
KBOI 260053Z 04007KT 10SM CLR 26/03 A2991 RMK AO2 SLP108 T02610028
KBOI 252353Z 36007KT 10SM CLR 27/03 A2992 RMK AO2 SLP112 T02670028 10278 20233 58018
KBOI 252253Z 03008KT 10SM CLR 27/02 A2994 RMK AO2 SLP117 T02720017
KBOI 252153Z VRB04KT 10SM CLR 28/01 A2996 RMK AO2 SLP124 T02780011
KBOI 252053Z VRB03KT 10SM CLR 27/01 A2998 RMK AO2 SLP129 T02670011 58014
KBOI 251953Z 10004KT 10SM CLR 26/01 A3000 RMK AO2 SLP138 T02560011
KBOI 251853Z VRB03KT 10SM CLR 26/00 A3001 RMK AO2 SLP142 T02560000
KBOI 251753Z 00000KT 10SM CLR 24/M02 A3002 RMK AO2 SLP146 T02441017 10244 20106 58005
KBOI 251653Z 00000KT 10SM CLR 22/M03 A3004 RMK AO2 SLP151 T02171033
KBOI 251553Z 00000KT 10SM CLR 21/M02 A3004 RMK AO2 SLP152 T02061017
KBOI 251453Z 13005KT 10SM CLR 17/01 A3004 RMK AO2 SLP153 T01720006 52009
KBOI 251353Z 11008KT 10SM CLR 14/01 A3003 RMK AO2 SLP151 T01390006
KBOI 251253Z 14004KT 10SM FEW080 11/01 A3002 RMK AO2 SLP151 T01060011
KBOI 251153Z 13006KT 10SM SCT080 11/01 A3001 RMK AO2 SLP146 7//// T01110011 10144 20106 53006
KBOI 251053Z 12005KT 10SM CLR 12/01 A3000 RMK AO2 SLP141 T01170011
KBOI 250953Z 12004KT 10SM CLR 12/01 A2999 RMK AO2 SLP139 T01220011
KBOI 250853Z 12006KT 10SM OVC090 14/01 A2999 RMK AO2 SLP137 T01440006 58002
KBOI 250753Z 11004KT 10SM FEW080 OVC100 14/00 A2999 RMK AO2 SLP140 T01440000
KBOI 250653Z 19006KT 10SM CLR 14/M01 A2999 RMK AO2 SLP141 T01391006 402220061
KBOI 250553Z 17003KT 10SM CLR 14/M01 A3000 RMK AO2 SLP142 T01441006 10217 20133 51005
KBOI 250453Z 15003KT 10SM CLR 16/01 A2999 RMK AO2 SLP143 T01560006
KBOI 250353Z 05003KT 10SM CLR 19/M01 A2998 RMK AO2 SLP137 T01941011
KBOI 250253Z 06003KT 10SM CLR 20/M03 A2998 RMK AO2 SLP136 T02001028 56010
KBOI 250153Z 36008KT 10SM CLR 21/M03 A2998 RMK AO2 SLP138 T02061033
KBOI 250053Z 36008KT 10SM CLR 22/M03 A3000 RMK AO2 SLP146 T02171033
KBOI 242353Z 32013KT 10SM CLR 22/M03 A3001 RMK AO2 SLP152 T02171028 10222 20172 56006
KBOI 242253Z 31013G19KT 10SM CLR 22/M03 A3002 RMK AO2 SLP151 T02221028
KBOI 242153Z 31013G17KT 10SM CLR 22/M02 A3002 RMK AO2 SLP152 T02171022
KBOI 242053Z 30013G18KT 270V330 10SM CLR 21/M02 A3003 RMK AO2 SLP156 T02061017 58010
KBOI 241953Z 29009G21KT 10SM CLR 20/M01 A3005 RMK AO2 SLP163 T02001006
KBOI 241853Z 30011G17KT 270V350 10SM CLR 18/01 A3005 RMK AO2 SLP165 T01830006
KBOI 241753Z AUTO 28010G19KT 10SM CLR 17/03 A3006 RMK AO2 SLP170 6//// T01720033 10178 20061 58003 PWINO $
KBOI 241653Z AUTO 28007KT 16/03 A3007 RMK AO2 SLP170 T01560033 PWINO PNO $
KBOI 241553Z 30007KT 10SM CLR 14/03 A3007 RMK AO2 SLP170 T01390033
KBOI 241453Z 33006KT 10SM CLR 12/03 A3007 RMK AO2 SLP172 T01220033 53010
KBOI 241353Z 00000KT 10SM CLR 10/03 A3007 RMK AO2 SLP170 T01000028
KBOI 241253Z 00000KT 10SM CLR 07/01 A3005 RMK AO2 SLP164 T00670011
KBOI 241153Z 18003KT 10SM SCT080 07/02 A3004 RMK AO2 SLP161 T00720022 10122 20072 51010
KBOI 241053Z 20003KT 10SM FEW085 08/01 A3003 RMK AO2 SLP158 T00830011
KBOI 240953Z 00000KT 10SM BKN095 10/01 A3002 RMK AO2 SLP154 T01000006
KBOI 240853Z AUTO 00000KT 10SM BKN095 10/00 A3001 RMK AO2 SLP149 T01000000 50000